Time;durP1;ratioP1;P1;durP2;ratioP2;P2;SDS_P1;SDS_P2;PMS_P1;PMS_P2;Temp;Humidity;BMP_temperature;BMP_pressure;BME280_temperature;BME280_humidity;BME280_pressure;Samples;Min_cycle;Max_cycle;Signal;HPM_P1;HPM_P2
2022/09/05 00:04:36;;;;;;;2.70;1.10;;;;;;;17.64;100.00;98891.50;15282624;19;20376;-78
2022/09/05 00:10:06;;;;;;;3.67;1.20;;;;;;;17.62;100.00;98896.31;15278358;19;20740;-77
2022/09/05 00:15:26;;;;;;;3.92;1.20;;;;;;;17.55;100.00;98896.25;15283572;19;20010;-78
2022/09/05 00:20:42;;;;;;;2.33;1.48;;;;;;;17.49;100.00;98888.84;15289378;19;21057;-80
2022/09/05 00:26:21;;;;;;;1.75;1.30;;;;;;;17.40;100.00;98887.28;15280782;19;20023;-80
2022/09/05 00:31:42;;;;;;;2.85;1.40;;;;;;;17.31;100.00;98888.47;15275580;19;20039;-78
2022/09/05 00:37:00;;;;;;;1.30;1.20;;;;;;;17.26;100.00;98886.31;15283355;19;20029;-77
2022/09/05 00:42:10;;;;;;;3.58;1.40;;;;;;;17.19;100.00;98897.13;15277025;19;20014;-81
2022/09/05 00:47:37;;;;;;;1.85;1.10;;;;;;;17.13;100.00;98897.88;15281679;19;20021;-77
2022/09/05 00:52:48;;;;;;;2.83;1.40;;;;;;;17.05;100.00;98892.56;15282602;19;20018;-79
2022/09/05 00:58:33;;;;;;;1.60;1.45;;;;;;;17.01;100.00;98894.84;15311933;19;20010;-81
2022/09/05 01:04:04;;;;;;;1.90;1.30;;;;;;;17.00;100.00;98905.91;15347883;19;20051;-78
2022/09/05 01:09:15;;;;;;;;;;;;;;;16.93;100.00;98903.09;15295225;19;20020;-82
2022/09/05 01:14:41;;;;;;;7.05;1.55;;;;;;;16.91;100.00;98903.25;15296941;19;19910;-83
2022/09/05 01:20:07;;;;;;;1.77;1.40;;;;;;;16.90;100.00;98907.00;15300275;19;20594;-83
2022/09/05 01:25:42;;;;;;;1.33;1.23;;;;;;;16.84;100.00;98909.66;15301907;19;20011;-84
2022/09/05 01:31:11;;;;;;;1.70;1.40;;;;;;;16.77;100.00;98904.97;15298606;19;20011;-83
2022/09/05 01:36:30;;;;;;;1.70;1.60;;;;;;;16.75;100.00;98904.31;15302752;19;20014;-80
2022/09/05 01:41:42;;;;;;;2.28;1.45;;;;;;;16.75;100.00;98904.31;15311821;19;20042;-80
2022/09/05 01:47:00;;;;;;;1.70;1.25;;;;;;;16.74;100.00;98905.34;15346931;19;20021;-81
2022/09/05 01:52:24;;;;;;;1.58;1.48;;;;;;;16.71;100.00;98904.91;15300801;19;20093;-78
2022/09/05 01:57:37;;;;;;;;;;;;;;;16.69;100.00;98909.69;15287192;19;20074;-79
2022/09/05 02:03:00;;;;;;;2.47;1.48;;;;;;;16.64;100.00;98911.06;15286321;19;19911;-77
2022/09/05 02:08:29;;;;;;;3.28;1.40;;;;;;;16.58;100.00;98900.97;15288176;19;20041;-80
2022/09/05 02:13:55;;;;;;;1.73;1.40;;;;;;;16.55;100.00;98911.38;15279381;19;20039;-82
2022/09/05 02:19:13;;;;;;;2.58;1.50;;;;;;;16.47;100.00;98904.16;15287485;19;20015;-79
2022/09/05 02:24:24;;;;;;;1.83;1.38;;;;;;;16.37;100.00;98899.00;15278105;19;20377;-78
2022/09/05 02:29:36;;;;;;;2.30;1.50;;;;;;;16.32;100.00;98896.84;15276455;19;20022;-77
2022/09/05 02:34:52;;;;;;;1.60;1.30;;;;;;;16.31;100.00;98900.59;15277956;19;20014;-78
2022/09/05 02:40:03;;;;;;;1.98;1.50;;;;;;;16.25;100.00;98895.03;15284979;19;20025;-77
2022/09/05 02:45:39;;;;;;;4.53;1.70;;;;;;;16.20;100.00;98906.47;15291190;19;20010;-77
2022/09/05 02:50:55;;;;;;;3.10;1.85;;;;;;;16.14;100.00;98897.19;15282595;19;20015;-78
2022/09/05 02:56:33;;;;;;;3.45;1.83;;;;;;;16.12;100.00;98901.13;15285449;19;20742;-77
2022/09/05 03:02:06;;;;;;;6.50;1.70;;;;;;;16.09;100.00;98898.78;15287586;19;20409;-80
2022/09/05 03:07:46;;;;;;;7.70;1.98;;;;;;;16.05;100.00;98905.63;15288282;19;20010;-81
2022/09/05 03:13:27;;;;;;;1.83;1.55;;;;;;;16.00;100.00;98893.44;15282190;19;21032;-82
2022/09/05 03:19:13;;;;;;;5.15;1.42;;;;;;;15.85;100.00;98903.41;15289088;19;20475;-82
2022/09/05 03:24:51;;;;;;;2.20;1.50;;;;;;;15.74;100.00;98903.81;15289705;19;20033;-81
2022/09/05 03:30:10;;;;;;;3.58;1.50;;;;;;;15.63;100.00;98903.25;15295443;19;20022;-82
2022/09/05 03:35:45;;;;;;;4.25;1.70;;;;;;;15.57;100.00;98903.97;15292161;19;20085;-82
2022/09/05 03:41:10;;;;;;;5.28;1.73;;;;;;;15.54;100.00;98907.06;15283413;19;20007;-81
2022/09/05 03:46:49;;;;;;;3.65;1.80;;;;;;;15.49;100.00;98917.59;15283777;19;20015;-80
2022/09/05 03:52:06;;;;;;;2.55;1.60;;;;;;;15.37;100.00;98915.31;15280583;19;20025;-81
2022/09/05 03:58:16;;;;;;;4.43;1.70;;;;;;;15.27;100.00;98906.56;15287042;19;20042;-80
2022/09/05 04:03:27;;;;;;;6.13;1.90;;;;;;;15.18;100.00;98904.94;15284603;19;20006;-80
2022/09/05 04:08:57;;;;;;;4.70;1.90;;;;;;;15.04;100.00;98906.53;15285503;19;20014;-81
2022/09/05 04:14:09;;;;;;;4.00;1.70;;;;;;;14.97;100.00;98908.25;15286685;19;20014;-80
2022/09/05 04:19:21;;;;;;;2.28;1.75;;;;;;;14.89;100.00;98899.16;15290786;19;20014;-80
2022/09/05 04:24:31;;;;;;;4.65;1.65;;;;;;;14.85;100.00;98910.53;15322701;19;20067;-82
2022/09/05 04:29:58;;;;;;;4.35;1.73;;;;;;;14.83;100.00;98907.97;15321873;19;20109;-81
2022/09/05 04:35:23;;;;;;;3.35;2.40;;;;;;;14.77;100.00;98908.69;15289760;19;20027;-81
2022/09/05 04:40:39;;;;;;;6.05;2.38;;;;;;;14.71;100.00;98917.53;15293471;19;20019;-82
2022/09/05 04:45:52;;;;;;;2.25;1.98;;;;;;;14.66;100.00;98931.59;15292758;19;20007;-80
2022/09/05 04:51:08;;;;;;;1.85;1.70;;;;;;;14.64;100.00;98931.78;15287932;19;20011;-84
2022/09/05 04:56:22;;;;;;;1.92;1.63;;;;;;;14.63;100.00;98945.53;15282479;19;20227;-81
2022/09/05 05:01:34;;;;;;;2.58;1.70;;;;;;;14.62;100.00;98949.25;15289431;19;20014;-80
2022/09/05 05:07:08;;;;;;;2.60;1.70;;;;;;;14.60;100.00;98959.41;15287927;19;20018;-79
2022/09/05 05:12:22;;;;;;;2.95;1.90;;;;;;;14.61;100.00;98964.66;15287754;19;20517;-80
2022/09/05 05:17:55;;;;;;;1.50;1.40;;;;;;;14.63;100.00;98959.91;15289813;19;20019;-80
2022/09/05 05:23:30;;;;;;;4.68;1.60;;;;;;;14.65;100.00;98962.44;15285599;19;20019;-81
2022/09/05 05:28:50;;;;;;;2.15;1.60;;;;;;;14.67;100.00;98971.28;15211578;19;20021;-81
2022/09/05 05:34:02;;;;;;;4.07;1.50;;;;;;;14.68;100.00;98970.25;15291099;19;20006;-81
2022/09/05 05:39:21;;;;;;;4.38;1.80;;;;;;;14.72;100.00;98971.63;15285068;19;20349;-82
2022/09/05 05:44:29;;;;;;;3.45;1.60;;;;;;;14.79;100.00;98982.63;15290524;19;20014;-82
2022/09/05 05:49:48;;;;;;;5.32;1.75;;;;;;;14.87;100.00;98973.59;15304124;19;20010;-79
2022/09/05 05:55:00;;;;;;;2.35;1.73;;;;;;;14.94;100.00;98969.97;15299445;19;20384;-81
2022/09/05 06:00:35;;;;;;;4.78;1.70;;;;;;;15.05;100.00;98978.78;15296671;19;20043;-82
2022/09/05 06:06:10;;;;;;;2.50;1.67;;;;;;;15.19;100.00;98966.31;15302480;19;20440;-81
2022/09/05 06:11:34;;;;;;;2.08;1.70;;;;;;;15.33;100.00;98978.28;15303670;19;20078;-82
2022/09/05 06:17:34;;;;;;;2.20;1.80;;;;;;;15.52;100.00;98988.69;15310514;19;20530;-80
2022/09/05 06:23:03;;;;;;;2.00;1.60;;;;;;;15.65;100.00;98984.53;15338257;19;20007;-82
2022/09/05 06:28:21;;;;;;;2.90;1.60;;;;;;;15.81;100.00;98997.19;15326081;19;20018;-79
2022/09/05 06:33:47;;;;;;;3.28;1.60;;;;;;;15.98;100.00;98992.50;15298404;19;20018;-82
2022/09/05 06:39:07;;;;;;;2.22;1.70;;;;;;;16.17;100.00;98985.69;15300380;19;20493;-81
2022/09/05 06:44:27;;;;;;;2.63;1.58;;;;;;;16.33;100.00;98987.44;15299196;19;20034;-81
2022/09/05 06:49:49;;;;;;;1.60;1.50;;;;;;;16.52;100.00;98987.91;15303491;19;20455;-81
2022/09/05 06:55:26;;;;;;;2.55;1.65;;;;;;;16.75;100.00;98993.28;15298085;19;20383;-80
2022/09/05 07:00:41;;;;;;;1.60;1.50;;;;;;;16.95;100.00;98988.13;15305945;19;20038;-81
2022/09/05 07:05:56;;;;;;;2.45;1.55;;;;;;;17.16;100.00;98987.38;15299787;19;20065;-79
2022/09/05 07:11:09;;;;;;;1.75;1.52;;;;;;;17.40;100.00;98980.72;15300146;19;20017;-79
2022/09/05 07:16:35;;;;;;;2.08;1.40;;;;;;;17.62;100.00;98993.53;15301188;19;20042;-81
2022/09/05 07:21:47;;;;;;;3.13;1.60;;;;;;;17.78;100.00;98993.31;15297232;19;20017;-80
2022/09/05 07:27:00;;;;;;;3.58;1.30;;;;;;;17.97;100.00;98986.41;15302294;19;20109;-80
2022/09/05 07:32:10;;;;;;;2.53;1.48;;;;;;;18.21;100.00;98988.91;15293600;19;20186;-80
2022/09/05 07:37:22;;;;;;;2.08;1.30;;;;;;;18.43;100.00;98989.72;15292178;19;20006;-81
2022/09/05 07:42:35;;;;;;;4.00;1.50;;;;;;;18.66;100.00;98997.63;15300388;19;20621;-82
2022/09/05 07:47:50;;;;;;;2.17;1.25;;;;;;;18.85;100.00;98998.78;15301075;19;20006;-82
2022/09/05 07:52:58;;;;;;;1.55;1.30;;;;;;;19.00;100.00;98993.22;15297621;19;20014;-81
2022/09/05 07:58:25;;;;;;;1.40;1.30;;;;;;;19.25;100.00;98993.56;15302580;19;20054;-80
2022/09/05 08:03:32;;;;;;;1.52;1.30;;;;;;;19.48;100.00;98986.94;15298904;19;20034;-81
2022/09/05 08:08:45;;;;;;;3.50;1.08;;;;;;;19.65;100.00;98987.41;15292698;19;20022;-81
2022/09/05 08:14:15;;;;;;;2.42;1.10;;;;;;;19.89;100.00;98987.91;15300954;19;20011;-80
2022/09/05 08:20:11;;;;;;;1.43;1.20;;;;;;;20.09;100.00;98981.59;15298128;19;20348;-80
2022/09/05 08:25:19;;;;;;;1.30;1.20;;;;;;;20.30;100.00;98984.09;15295672;19;20039;-81
2022/09/05 08:30:29;;;;;;;0.80;0.80;;;;;;;20.51;100.00;98986.84;15301480;19;20019;-80
2022/09/05 08:35:43;;;;;;;2.42;1.00;;;;;;;20.70;100.00;98979.66;15299143;19;20037;-82
2022/09/05 08:40:55;;;;;;;1.85;0.88;;;;;;;20.94;100.00;98980.88;15294437;19;20014;-81
2022/09/05 08:46:01;;;;;;;;;;;;;;;21.21;100.00;98978.91;15300472;19;20562;-80
2022/09/05 08:51:40;;;;;;;1.27;0.90;;;;;;;21.60;100.00;98969.88;15312970;19;19919;-82
2022/09/05 08:57:03;;;;;;;1.00;0.90;;;;;;;21.77;100.00;98965.56;15301379;19;20057;-81
2022/09/05 09:02:53;;;;;;;2.42;1.00;;;;;;;21.95;100.00;98962.06;15301651;19;20018;-81
2022/09/05 09:08:14;;;;;;;1.70;0.82;;;;;;;22.16;100.00;98955.38;15313729;19;20487;-81
2022/09/05 09:13:33;;;;;;;2.83;0.90;;;;;;;22.35;100.00;98949.91;15291912;19;20650;-81
2022/09/05 09:19:04;;;;;;;3.17;1.00;;;;;;;22.55;100.00;98954.38;15299287;19;20087;-81
2022/09/05 09:24:26;;;;;;;2.20;0.90;;;;;;;22.71;100.00;98942.81;15310505;19;20015;-81
2022/09/05 09:29:37;;;;;;;2.30;0.88;;;;;;;22.89;100.00;98938.38;15310870;19;20018;-82
2022/09/05 09:34:54;;;;;;;2.83;0.80;;;;;;;23.15;100.00;98942.75;15325385;19;20014;-81
2022/09/05 09:40:23;;;;;;;1.92;0.80;;;;;;;23.35;100.00;98942.47;15320251;19;20031;-81
2022/09/05 09:45:48;;;;;;;1.67;0.70;;;;;;;23.55;100.00;98936.72;15300775;19;20018;-80
2022/09/05 09:51:13;;;;;;;0.60;0.60;;;;;;;23.76;100.00;98942.75;15307079;19;20014;-82
2022/09/05 09:56:49;;;;;;;0.68;0.50;;;;;;;23.97;100.00;98932.31;15311358;19;20014;-81
2022/09/05 10:02:14;;;;;;;2.55;0.57;;;;;;;24.21;100.00;98924.91;15313764;19;20014;-82
2022/09/05 10:08:11;;;;;;;0.60;0.60;;;;;;;24.42;100.00;98928.16;15355624;19;20007;-81
2022/09/05 10:14:13;;;;;;;0.90;0.55;;;;;;;24.59;100.00;98923.59;15338921;19;20038;-81
2022/09/05 10:20:09;;;;;;;0.82;0.50;;;;;;;24.76;100.00;98909.09;15312051;19;20309;-82
2022/09/05 10:25:50;;;;;;;0.75;0.47;;;;;;;24.97;100.00;98915.06;15309218;19;21152;-82
2022/09/05 10:31:12;;;;;;;1.20;0.52;;;;;;;25.12;100.00;98909.84;15355362;19;20113;-81
2022/09/05 10:36:40;;;;;;;0.75;0.50;;;;;;;25.21;100.00;98905.63;15322066;19;20014;-82
2022/09/05 10:41:49;;;;;;;0.98;0.40;;;;;;;25.36;100.00;98904.25;15294990;19;20015;-81
2022/09/05 10:47:08;;;;;;;0.40;0.40;;;;;;;25.43;100.00;98882.91;15299322;19;20014;-81
2022/09/05 10:52:15;;;;;;;1.48;0.40;;;;;;;25.68;100.00;98889.97;15288931;19;20031;-83
2022/09/05 10:57:37;;;;;;;0.33;0.33;;;;;;;25.92;100.00;98884.31;15294759;19;20017;-81
2022/09/05 11:02:45;;;;;;;1.90;0.38;;;;;;;26.10;100.00;98881.31;15295370;19;20527;-81
2022/09/05 11:08:05;;;;;;;0.82;0.43;;;;;;;26.18;100.00;98876.44;15296914;19;20534;-81
2022/09/05 11:13:22;;;;;;;0.73;0.30;;;;;;;26.30;95.83;98874.41;15293890;19;20475;-81
2022/09/05 11:18:49;;;;;;;1.50;0.40;;;;;;;26.36;98.46;98867.03;15286508;19;20040;-81
2022/09/05 11:24:08;;;;;;;0.63;0.40;;;;;;;26.45;94.23;98860.00;15282298;19;20018;-80
2022/09/05 11:29:17;;;;;;;2.15;0.35;;;;;;;26.49;90.12;98852.03;15288860;19;20021;-80
2022/09/05 11:34:49;;;;;;;0.90;0.40;;;;;;;26.59;93.93;98849.41;15293633;19;20019;-81
2022/09/05 11:40:27;;;;;;;0.30;0.30;;;;;;;26.71;85.34;98847.34;15292780;19;20002;-85
2022/09/05 11:46:22;;;;;;;0.25;0.20;;;;;;;26.81;74.67;98840.31;15288563;19;20234;-85
2022/09/05 11:52:06;;;;;;;0.30;0.30;;;;;;;26.77;68.69;98849.06;15292540;19;20376;-83
2022/09/05 11:57:30;;;;;;;1.08;0.40;;;;;;;26.88;75.19;98844.53;15289222;19;20014;-86
2022/09/05 12:03:10;;;;;;;0.60;0.30;;;;;;;26.97;81.62;98839.41;15299871;19;20038;-83
2022/09/05 12:08:41;;;;;;;2.10;0.40;;;;;;;27.06;81.42;98840.59;15301412;19;20030;-83
2022/09/05 12:13:53;;;;;;;0.55;0.40;;;;;;;27.16;81.84;98836.28;15300980;19;20034;-85
2022/09/05 12:19:12;;;;;;;0.35;0.30;;;;;;;27.28;76.64;98831.41;15298921;19;20733;-83
2022/09/05 12:24:33;;;;;;;3.05;0.50;;;;;;;27.38;77.19;98830.69;15303754;19;20018;-84
2022/09/05 12:30:00;;;;;;;1.50;0.40;;;;;;;27.62;78.80;98822.91;15298864;19;20018;-81
2022/09/05 12:35:08;;;;;;;1.58;0.20;;;;;;;28.02;70.93;98825.41;15308646;19;20486;-86
2022/09/05 12:40:40;;;;;;;1.08;0.45;;;;;;;28.22;69.70;98822.81;15311169;19;20015;-81
2022/09/05 12:46:09;;;;;;;2.55;0.50;;;;;;;28.28;71.02;98818.13;15301607;19;20038;-80
2022/09/05 12:51:32;;;;;;;1.45;0.55;;;;;;;28.48;67.54;98817.41;15295303;19;20384;-80
2022/09/05 12:57:01;;;;;;;0.52;0.45;;;;;;;28.45;65.27;98826.25;15306691;19;20015;-79
2022/09/05 13:02:32;;;;;;;1.20;0.45;;;;;;;28.22;64.12;98813.69;15317243;19;20263;-80
2022/09/05 13:07:58;;;;;;;;;;;;;;;28.20;62.04;98813.09;15326133;19;20022;-82
2022/09/05 13:13:10;;;;;;;1.67;0.50;;;;;;;28.21;65.15;98818.38;15320216;19;19953;-81
2022/09/05 13:18:42;;;;;;;0.68;0.50;;;;;;;28.07;64.20;98812.44;15324547;19;20010;-81
2022/09/05 13:23:59;;;;;;;4.25;0.52;;;;;;;27.95;66.70;98809.84;15318959;19;20472;-81
2022/09/05 13:29:15;;;;;;;0.50;0.40;;;;;;;27.78;66.68;98804.47;15306322;19;21235;-84
2022/09/05 13:34:25;;;;;;;2.33;0.40;;;;;;;27.69;68.94;98812.44;15306339;19;20015;-80
2022/09/05 13:39:55;;;;;;;3.92;0.60;;;;;;;27.47;68.97;98801.47;15311204;19;20621;-80
2022/09/05 13:45:04;;;;;;;5.35;0.63;;;;;;;27.31;68.73;98786.63;15302367;19;20014;-81
2022/09/05 13:50:22;;;;;;;2.85;0.50;;;;;;;27.33;72.91;98792.75;15305704;19;20018;-80
2022/09/05 13:55:40;;;;;;;0.60;0.50;;;;;;;27.24;74.45;98780.47;15297236;19;20006;-80
2022/09/05 14:01:13;;;;;;;4.50;0.40;;;;;;;27.25;72.15;98776.59;15295550;19;20503;-81
2022/09/05 14:06:47;;;;;;;1.23;0.52;;;;;;;27.64;73.25;98773.66;15285670;19;20089;-79
2022/09/05 14:12:03;;;;;;;2.20;0.40;;;;;;;27.84;70.26;98764.66;15290503;19;20013;-79
2022/09/05 14:17:29;;;;;;;1.40;0.40;;;;;;;27.83;66.54;98762.16;15302445;19;20384;-79
2022/09/05 14:23:02;;;;;;;1.08;0.50;;;;;;;27.78;70.36;98756.59;15295091;19;20471;-80
2022/09/05 14:28:14;;;;;;;3.38;0.60;;;;;;;27.78;69.39;98757.41;15298796;19;20018;-79
2022/09/05 14:33:49;;;;;;;0.38;0.38;;;;;;;28.02;64.76;98759.78;15297961;19;20035;-80
2022/09/05 14:39:30;;;;;;;1.75;0.45;;;;;;;28.02;63.44;98756.19;15297380;19;20022;-79
2022/09/05 14:44:50;;;;;;;2.88;0.50;;;;;;;27.92;64.51;98757.81;15301162;19;20010;-80
2022/09/05 14:50:14;;;;;;;1.08;0.40;;;;;;;27.82;62.99;98749.41;15320202;19;20014;-79
2022/09/05 14:55:24;;;;;;;2.47;0.60;;;;;;;27.72;64.26;98741.03;15339247;19;20006;-80
2022/09/05 15:00:30;;;;;;;0.73;0.43;;;;;;;28.20;64.12;98741.09;15291066;19;20035;-79
2022/09/05 15:05:57;;;;;;;1.48;0.50;;;;;;;28.79;59.71;98731.59;15283578;19;20010;-78
2022/09/05 15:11:09;;;;;;;1.77;0.30;;;;;;;29.17;55.75;98728.59;15281973;19;20388;-79
2022/09/05 15:16:39;;;;;;;1.42;0.55;;;;;;;29.46;55.09;98725.31;15292135;19;20007;-79
2022/09/05 15:21:46;;;;;;;1.38;0.57;;;;;;;29.81;54.68;98732.72;15292987;19;20034;-80
2022/09/05 15:26:53;;;;;;;2.22;0.40;;;;;;;29.89;53.43;98723.00;15291529;19;20013;-80
2022/09/05 15:32:14;;;;;;;0.40;0.40;;;;;;;30.17;51.77;98729.06;15287748;19;20941;-80
2022/09/05 15:37:30;;;;;;;2.00;0.40;;;;;;;30.26;51.32;98726.53;15295665;19;20022;-80
2022/09/05 15:42:37;;;;;;;2.03;0.70;;;;;;;30.15;52.23;98727.69;15286070;19;20046;-80
2022/09/05 15:47:49;;;;;;;7.30;0.68;;;;;;;29.61;54.02;98718.88;15324609;19;20014;-77
2022/09/05 15:52:57;;;;;;;3.50;0.60;;;;;;;29.58;54.03;98716.69;15316809;19;20050;-81
2022/09/05 15:58:06;;;;;;;2.08;0.60;;;;;;;29.55;54.92;98711.69;15309288;19;20018;-81
2022/09/05 16:03:27;;;;;;;4.93;0.60;;;;;;;29.35;54.21;98707.81;15305004;19;20027;-81
2022/09/05 16:08:58;;;;;;;4.35;0.60;;;;;;;29.45;55.77;98701.44;15280149;19;20599;-82
2022/09/05 16:14:28;;;;;;;1.63;0.40;;;;;;;29.54;55.12;98705.28;15281681;19;20388;-81
2022/09/05 16:19:39;;;;;;;0.77;0.57;;;;;;;29.67;54.82;98701.13;15279351;19;20042;-82
2022/09/05 16:25:09;;;;;;;1.73;0.60;;;;;;;29.48;55.90;98698.09;15282600;19;20031;-81
2022/09/05 16:30:22;;;;;;;1.70;0.75;;;;;;;29.32;57.60;98709.19;15285217;19;20439;-81
2022/09/05 16:35:27;;;;;;;3.25;0.80;;;;;;;29.29;59.06;98697.81;15289574;19;20014;-80
2022/09/05 16:40:40;;;;;;;5.18;1.08;;;;;;;28.98;60.04;98700.59;15278506;19;20018;-80
2022/09/05 16:45:50;;;;;;;3.45;1.00;;;;;;;28.74;62.19;98692.78;15274564;19;20018;-78
2022/09/05 16:51:02;;;;;;;2.10;0.95;;;;;;;28.43;64.43;98689.91;15284593;19;20049;-78
2022/09/05 16:56:25;;;;;;;1.58;0.90;;;;;;;27.80;66.48;98694.31;15286417;19;20483;-80
2022/09/05 17:01:47;;;;;;;;;;;;;;;27.22;72.15;98696.94;15284538;19;20324;-79
2022/09/05 17:07:05;;;;;;;3.03;0.80;;;;;;;26.99;75.31;98696.16;15285052;19;19919;-80
2022/09/05 17:12:16;;;;;;;2.88;0.90;;;;;;;26.69;79.82;98699.47;15295276;19;20050;-80
2022/09/05 17:17:31;;;;;;;2.50;0.85;;;;;;;26.19;88.84;98704.13;15294535;19;20069;-75
2022/09/05 17:23:01;;;;;;;2.27;1.00;;;;;;;25.71;95.37;98693.53;15331861;19;20014;-80
2022/09/05 17:28:48;;;;;;;3.00;0.90;;;;;;;25.32;100.00;98691.56;15314326;19;20267;-79
2022/09/05 17:34:40;;;;;;;1.13;0.90;;;;;;;24.99;100.00;98689.66;15291019;19;20051;-79
2022/09/05 17:39:55;;;;;;;2.65;1.00;;;;;;;24.64;100.00;98693.41;15283907;19;20022;-78
2022/09/05 17:45:14;;;;;;;2.50;0.98;;;;;;;24.34;100.00;98691.72;15293006;19;20364;-79
2022/09/05 17:50:21;;;;;;;3.10;1.08;;;;;;;24.18;100.00;98685.88;15293827;19;20027;-79
2022/09/05 17:55:57;;;;;;;2.65;0.98;;;;;;;24.05;100.00;98691.69;15326969;19;20014;-77
2022/09/05 18:01:22;;;;;;;5.53;1.20;;;;;;;23.87;100.00;98690.72;15328208;19;20034;-79
2022/09/05 18:06:34;;;;;;;4.57;1.10;;;;;;;23.68;100.00;98696.38;15304927;19;20018;-78
2022/09/05 18:11:42;;;;;;;4.72;1.10;;;;;;;23.50;100.00;98700.09;15293094;19;20042;-76
2022/09/05 18:17:58;;;;;;;2.47;1.00;;;;;;;23.36;100.00;98701.41;15289853;19;20014;-78
2022/09/05 18:23:40;;;;;;;2.20;1.00;;;;;;;23.28;100.00;98699.84;15292952;19;20022;-76
2022/09/05 18:29:17;;;;;;;5.57;1.20;;;;;;;23.19;100.00;98695.75;15287861;19;20010;-78
2022/09/05 18:34:44;;;;;;;5.65;1.13;;;;;;;23.09;100.00;98694.41;15286959;19;20598;-77
2022/09/05 18:40:05;;;;;;;2.47;1.10;;;;;;;22.98;100.00;98694.38;15278275;19;20043;-79
2022/09/05 18:45:14;;;;;;;2.90;1.10;;;;;;;22.84;100.00;98702.81;15296549;19;20058;-79
2022/09/05 18:50:22;;;;;;;6.38;1.20;;;;;;;22.71;100.00;98705.78;15303390;19;20014;-81
2022/09/05 18:55:35;;;;;;;1.67;1.10;;;;;;;22.53;100.00;98704.75;15305076;19;20415;-81
2022/09/05 19:01:21;;;;;;;3.38;1.13;;;;;;;22.39;100.00;98704.09;15304423;19;20014;-81
2022/09/05 19:06:35;;;;;;;5.13;1.20;;;;;;;22.26;100.00;98715.22;15310308;19;20054;-79
2022/09/05 19:11:53;;;;;;;3.60;1.20;;;;;;;22.11;100.00;98705.47;15310533;19;20018;-81
2022/09/05 19:17:03;;;;;;;5.15;1.30;;;;;;;21.95;100.00;98711.56;15308459;19;20018;-78
2022/09/05 19:22:14;;;;;;;7.18;1.30;;;;;;;21.85;100.00;98709.38;15300167;19;20569;-79
2022/09/05 19:27:49;;;;;;;5.03;1.10;;;;;;;21.78;100.00;98709.44;15293160;19;20018;-78
2022/09/05 19:33:24;;;;;;;1.60;1.10;;;;;;;21.68;100.00;98715.44;15296676;19;20021;-79
2022/09/05 19:38:52;;;;;;;2.53;1.15;;;;;;;21.57;100.00;98710.69;15293014;19;20018;-77
2022/09/05 19:44:33;;;;;;;2.95;1.30;;;;;;;21.53;100.00;98712.19;15293242;19;20038;-79
2022/09/05 19:50:00;;;;;;;3.28;1.10;;;;;;;21.51;100.00;98717.91;15266399;19;20022;-78
2022/09/05 19:55:19;;;;;;;1.65;1.00;;;;;;;21.44;100.00;98728.09;15291247;19;20081;-78
2022/09/05 20:00:29;;;;;;;2.65;1.30;;;;;;;21.36;100.00;98728.38;15288048;19;20593;-78
2022/09/05 20:05:34;;;;;;;2.63;1.15;;;;;;;21.32;100.00;98716.19;15290148;19;20006;-79
2022/09/05 20:10:39;;;;;;;2.00;1.30;;;;;;;21.29;100.00;98722.13;15293692;19;20007;-81
2022/09/05 20:15:46;;;;;;;1.95;1.15;;;;;;;21.22;100.00;98717.53;15296822;19;20015;-81
2022/09/05 20:20:54;;;;;;;1.95;1.20;;;;;;;21.13;100.00;98710.66;15296022;19;20078;-80
2022/09/05 20:26:04;;;;;;;2.70;1.50;;;;;;;;;;15317351;19;20948;-78
2022/09/05 20:31:18;;;;;;;4.15;1.30;;;;;;;21.01;100.00;98710.53;15326249;19;20010;-77
2022/09/05 20:36:28;;;;;;;2.35;1.40;;;;;;;21.01;100.00;98710.53;15278371;19;20058;-78
2022/09/05 20:41:52;;;;;;;3.65;1.55;;;;;;;20.94;100.00;98710.59;15278452;19;20393;-76
2022/09/05 20:47:22;;;;;;;2.45;1.38;;;;;;;20.90;100.00;98709.34;15282767;19;20010;-81
2022/09/05 20:52:51;;;;;;;1.45;1.35;;;;;;;20.84;100.00;98704.75;15286793;19;20463;-79
2022/09/05 20:58:18;;;;;;;1.45;1.30;;;;;;;20.80;100.00;98703.50;15277945;19;20414;-81
2022/09/05 21:03:35;;;;;;;4.97;1.38;;;;;;;20.78;100.00;98706.50;15282773;19;20063;-79
2022/09/05 21:08:40;;;;;;;2.55;1.40;;;;;;;20.69;100.00;98705.03;15281384;19;20636;-82
2022/09/05 21:13:52;;;;;;;2.15;1.30;;;;;;;20.62;100.00;98718.78;15290068;19;20038;-82
2022/09/05 21:18:59;;;;;;;1.88;1.60;;;;;;;20.64;100.00;98724.03;15301467;19;20396;-82
2022/09/05 21:24:09;;;;;;;2.63;1.40;;;;;;;20.63;100.00;98723.19;15325283;19;20011;-80
2022/09/05 21:29:26;;;;;;;3.85;1.40;;;;;;;20.62;100.00;98723.41;15316462;19;20031;-80
2022/09/05 21:34:42;;;;;;;2.78;1.60;;;;;;;20.59;100.00;98729.28;15321417;19;20011;-81
2022/09/05 21:39:51;;;;;;;2.15;1.63;;;;;;;20.57;100.00;98720.50;15301091;19;20019;-81
2022/09/05 21:45:04;;;;;;;3.83;1.60;;;;;;;20.41;100.00;98708.13;15298002;19;20011;-81
2022/09/05 21:50:38;;;;;;;2.75;1.75;;;;;;;20.32;100.00;98708.38;15302077;19;20011;-79
2022/09/05 21:55:43;;;;;;;1.58;1.40;;;;;;;20.25;100.00;98702.13;15298305;19;20348;-79
2022/09/05 22:01:07;;;;;;;3.67;1.55;;;;;;;20.16;100.00;98697.97;15297423;19;20018;-79
2022/09/05 22:06:17;;;;;;;3.17;1.50;;;;;;;20.08;100.00;98707.25;15295175;19;20577;-81
2022/09/05 22:11:22;;;;;;;3.70;1.70;;;;;;;20.00;100.00;98713.78;15299346;19;20039;-80
2022/09/05 22:16:30;;;;;;;3.00;1.60;;;;;;;19.96;100.00;98692.56;15296044;19;20015;-81
2022/09/05 22:21:41;;;;;;;3.30;1.50;;;;;;;19.98;100.00;98696.75;15296410;19;20021;-80
2022/09/05 22:26:52;;;;;;;2.95;1.60;;;;;;;19.97;100.00;98699.72;15291619;19;20013;-79
2022/09/05 22:32:16;;;;;;;2.13;1.77;;;;;;;19.94;100.00;98684.56;15291502;19;20028;-79
2022/09/05 22:37:43;;;;;;;3.33;1.52;;;;;;;19.93;100.00;98696.56;15288365;19;20074;-79
2022/09/05 22:42:56;;;;;;;1.67;1.50;;;;;;;19.92;100.00;98685.84;15298685;19;20023;-80
2022/09/05 22:48:07;;;;;;;2.40;1.60;;;;;;;19.89;100.00;98699.94;15296906;19;20029;-80
2022/09/05 22:53:14;;;;;;;1.47;1.37;;;;;;;19.89;100.00;98697.19;15300361;19;20507;-81
2022/09/05 22:58:20;;;;;;;1.42;1.20;;;;;;;19.93;100.00;98687.50;15300628;19;20532;-81
2022/09/05 23:03:24;;;;;;;0.80;0.80;;;;;;;19.93;100.00;98677.44;15313824;19;20047;-82
2022/09/05 23:08:32;;;;;;;0.90;0.90;;;;;;;19.90;100.00;98680.59;15304465;19;20025;-81
2022/09/05 23:13:37;;;;;;;1.13;0.80;;;;;;;19.86;100.00;98682.06;15304181;19;20013;-81
2022/09/05 23:18:42;;;;;;;1.17;0.90;;;;;;;19.82;100.00;98664.38;15304039;19;20015;-79
2022/09/05 23:23:49;;;;;;;1.80;0.80;;;;;;;19.78;100.00;98653.03;15307979;19;20019;-80
2022/09/05 23:28:54;;;;;;;1.00;0.90;;;;;;;19.67;100.00;98662.75;15298361;19;20479;-82
2022/09/05 23:33:58;;;;;;;2.08;0.73;;;;;;;19.66;100.00;98655.59;15297095;19;20018;-80
2022/09/05 23:39:06;;;;;;;1.00;0.73;;;;;;;19.63;100.00;98656.03;15292701;19;20037;-80
2022/09/05 23:44:10;;;;;;;1.08;0.93;;;;;;;19.55;100.00;98642.59;15303133;19;20416;-81
2022/09/05 23:49:15;;;;;;;1.58;0.93;;;;;;;19.49;100.00;98640.72;15306470;19;20026;-80
2022/09/05 23:54:23;;;;;;;0.75;0.70;;;;;;;19.49;100.00;98648.91;15317099;19;20015;-79
2022/09/05 23:59:28;;;;;;;2.20;0.80;;;;;;;19.47;100.00;98634.63;15307839;19;20581;-78
